sensor_id;sensor_type;location;lat;lon;timestamp;P1;durP1;ratioP1;P2;durP2;ratioP2
67762;SDS011;54566;52.022;5.582;2024-02-26T09:57:04;13.73;;;8.52;;
67762;SDS011;54566;52.022;5.582;2024-02-26T09:59:43;14.30;;;8.38;;
67762;SDS011;54566;52.022;5.582;2024-02-26T10:02:21;17.58;;;9.20;;
67762;SDS011;54566;52.022;5.582;2024-02-26T10:04:53;18.48;;;8.60;;
67762;SDS011;54566;52.022;5.582;2024-02-26T10:07:40;15.55;;;8.10;;
67762;SDS011;54566;52.022;5.582;2024-02-26T10:10:11;16.58;;;8.93;;
67762;SDS011;54566;52.022;5.582;2024-02-26T10:12:44;13.70;;;8.82;;
67762;SDS011;54566;52.022;5.582;2024-02-26T10:15:10;16.50;;;8.70;;
67762;SDS011;54566;52.022;5.582;2024-02-26T10:17:39;16.25;;;8.70;;
67762;SDS011;54566;52.022;5.582;2024-02-26T10:20:14;17.08;;;8.00;;
67762;SDS011;54566;52.022;5.582;2024-02-26T10:22:47;13.60;;;8.43;;
67762;SDS011;54566;52.022;5.582;2024-02-26T10:30:49;12.85;;;7.63;;
67762;SDS011;54566;52.022;5.582;2024-02-26T10:33:41;11.45;;;7.57;;
67762;SDS011;54566;52.022;5.582;2024-02-26T10:36:27;15.65;;;8.15;;
67762;SDS011;54566;52.022;5.582;2024-02-26T10:42:56;12.93;;;7.82;;
67762;SDS011;54566;52.022;5.582;2024-02-26T10:45:52;16.60;;;8.07;;
67762;SDS011;54566;52.022;5.582;2024-02-26T10:48:23;13.63;;;8.68;;
67762;SDS011;54566;52.022;5.582;2024-02-26T10:51:05;13.13;;;8.20;;
67762;SDS011;54566;52.022;5.582;2024-02-26T10:53:41;16.02;;;8.77;;
67762;SDS011;54566;52.022;5.582;2024-02-26T10:56:18;13.45;;;7.82;;
67762;SDS011;54566;52.022;5.582;2024-02-26T10:58:47;14.00;;;8.13;;
67762;SDS011;54566;52.022;5.582;2024-02-26T11:04:23;14.70;;;7.82;;
67762;SDS011;54566;52.022;5.582;2024-02-26T11:07:02;15.77;;;8.63;;
67762;SDS011;54566;52.022;5.582;2024-02-26T11:09:38;13.85;;;7.78;;
67762;SDS011;54566;52.022;5.582;2024-02-26T11:12:23;15.23;;;8.23;;
67762;SDS011;54566;52.022;5.582;2024-02-26T11:14:50;15.85;;;7.93;;
67762;SDS011;54566;52.022;5.582;2024-02-26T11:17:22;14.70;;;7.57;;
67762;SDS011;54566;52.022;5.582;2024-02-26T11:20:03;15.10;;;7.88;;
67762;SDS011;54566;52.022;5.582;2024-02-26T11:22:38;12.23;;;7.15;;
67762;SDS011;54566;52.022;5.582;2024-02-26T11:25:38;16.52;;;7.40;;
67762;SDS011;54566;52.022;5.582;2024-02-26T11:28:06;13.82;;;7.57;;
67762;SDS011;54566;52.022;5.582;2024-02-26T11:30:58;12.13;;;7.35;;
67762;SDS011;54566;52.022;5.582;2024-02-26T11:33:35;13.75;;;7.70;;
67762;SDS011;54566;52.022;5.582;2024-02-26T11:36:10;13.27;;;8.35;;
67762;SDS011;54566;52.022;5.582;2024-02-26T11:38:42;13.30;;;8.05;;
67762;SDS011;54566;52.022;5.582;2024-02-26T11:41:20;14.43;;;8.55;;
67762;SDS011;54566;52.022;5.582;2024-02-26T11:43:50;15.98;;;8.05;;
67762;SDS011;54566;52.022;5.582;2024-02-26T11:46:28;15.20;;;7.88;;
67762;SDS011;54566;52.022;5.582;2024-02-26T11:49:30;13.40;;;7.88;;
67762;SDS011;54566;52.022;5.582;2024-02-26T11:52:07;11.90;;;7.60;;
67762;SDS011;54566;52.022;5.582;2024-02-26T11:54:50;13.52;;;7.47;;
67762;SDS011;54566;52.022;5.582;2024-02-26T11:57:25;16.38;;;8.10;;
67762;SDS011;54566;52.022;5.582;2024-02-26T12:00:50;12.88;;;7.78;;
67762;SDS011;54566;52.022;5.582;2024-02-26T12:06:53;11.75;;;7.28;;
67762;SDS011;54566;52.022;5.582;2024-02-26T12:12:10;13.52;;;8.35;;
67762;SDS011;54566;52.022;5.582;2024-02-26T12:14:56;12.52;;;7.53;;
67762;SDS011;54566;52.022;5.582;2024-02-26T12:20:38;13.90;;;7.88;;
67762;SDS011;54566;52.022;5.582;2024-02-26T12:23:26;13.80;;;7.53;;
67762;SDS011;54566;52.022;5.582;2024-02-26T12:26:03;14.30;;;7.85;;
67762;SDS011;54566;52.022;5.582;2024-02-26T12:28:42;14.10;;;7.55;;
67762;SDS011;54566;52.022;5.582;2024-02-26T12:31:39;10.13;;;6.63;;
67762;SDS011;54566;52.022;5.582;2024-02-26T12:34:07;11.90;;;6.93;;
67762;SDS011;54566;52.022;5.582;2024-02-26T12:36:42;12.82;;;6.45;;
67762;SDS011;54566;52.022;5.582;2024-02-26T12:39:34;11.60;;;6.70;;
67762;SDS011;54566;52.022;5.582;2024-02-26T12:42:09;10.25;;;6.72;;
67762;SDS011;54566;52.022;5.582;2024-02-26T12:44:37;11.75;;;6.72;;
67762;SDS011;54566;52.022;5.582;2024-02-26T12:47:06;11.13;;;6.57;;
67762;SDS011;54566;52.022;5.582;2024-02-26T12:49:49;12.70;;;6.57;;
67762;SDS011;54566;52.022;5.582;2024-02-26T12:52:50;11.63;;;6.35;;
67762;SDS011;54566;52.022;5.582;2024-02-26T12:55:50;11.25;;;6.60;;
67762;SDS011;54566;52.022;5.582;2024-02-26T12:58:24;11.27;;;6.13;;
67762;SDS011;54566;52.022;5.582;2024-02-26T13:01:09;10.05;;;6.55;;
67762;SDS011;54566;52.022;5.582;2024-02-26T13:03:45;11.55;;;6.63;;
67762;SDS011;54566;52.022;5.582;2024-02-26T13:06:14;10.43;;;6.50;;
67762;SDS011;54566;52.022;5.582;2024-02-26T13:08:46;12.23;;;7.03;;
67762;SDS011;54566;52.022;5.582;2024-02-26T13:11:24;15.27;;;6.28;;
67762;SDS011;54566;52.022;5.582;2024-02-26T13:13:58;10.02;;;6.00;;
67762;SDS011;54566;52.022;5.582;2024-02-26T13:16:28;13.50;;;6.05;;
67762;SDS011;54566;52.022;5.582;2024-02-26T13:19:10;9.90;;;5.88;;
67762;SDS011;54566;52.022;5.582;2024-02-26T13:24:28;8.73;;;5.95;;
67762;SDS011;54566;52.022;5.582;2024-02-26T13:27:08;12.20;;;6.13;;
67762;SDS011;54566;52.022;5.582;2024-02-26T13:29:45;9.48;;;5.53;;
67762;SDS011;54566;52.022;5.582;2024-02-26T13:35:14;10.32;;;6.45;;
67762;SDS011;54566;52.022;5.582;2024-02-26T13:37:43;9.07;;;6.50;;
67762;SDS011;54566;52.022;5.582;2024-02-26T13:40:17;8.85;;;6.30;;
67762;SDS011;54566;52.022;5.582;2024-02-26T13:54:09;10.35;;;5.60;;
67762;SDS011;54566;52.022;5.582;2024-02-26T14:03:49;9.43;;;6.10;;
67762;SDS011;54566;52.022;5.582;2024-02-26T14:06:30;10.68;;;6.32;;
67762;SDS011;54566;52.022;5.582;2024-02-26T14:09:34;10.18;;;6.43;;
67762;SDS011;54566;52.022;5.582;2024-02-26T14:18:26;8.82;;;5.90;;
67762;SDS011;54566;52.022;5.582;2024-02-26T14:27:30;8.00;;;5.22;;
67762;SDS011;54566;52.022;5.582;2024-02-26T14:33:27;13.27;;;6.18;;
67762;SDS011;54566;52.022;5.582;2024-02-26T14:36:06;9.50;;;6.50;;
67762;SDS011;54566;52.022;5.582;2024-02-26T14:39:04;8.30;;;5.50;;
67762;SDS011;54566;52.022;5.582;2024-02-26T14:42:17;10.55;;;5.85;;
67762;SDS011;54566;52.022;5.582;2024-02-26T14:57:39;7.97;;;5.68;;
67762;SDS011;54566;52.022;5.582;2024-02-26T15:07:55;9.55;;;5.03;;
67762;SDS011;54566;52.022;5.582;2024-02-26T15:17:31;7.47;;;4.90;;
67762;SDS011;54566;52.022;5.582;2024-02-26T15:20:42;8.60;;;4.75;;
67762;SDS011;54566;52.022;5.582;2024-02-26T15:23:45;6.90;;;4.53;;
67762;SDS011;54566;52.022;5.582;2024-02-26T15:26:46;8.95;;;4.93;;
67762;SDS011;54566;52.022;5.582;2024-02-26T15:33:08;7.55;;;4.15;;
67762;SDS011;54566;52.022;5.582;2024-02-26T15:39:08;7.60;;;4.85;;
67762;SDS011;54566;52.022;5.582;2024-02-26T15:42:05;6.72;;;4.60;;
67762;SDS011;54566;52.022;5.582;2024-02-26T15:44:58;7.57;;;4.93;;
67762;SDS011;54566;52.022;5.582;2024-02-26T15:47:41;5.72;;;4.22;;
67762;SDS011;54566;52.022;5.582;2024-02-26T15:50:18;7.55;;;5.03;;
67762;SDS011;54566;52.022;5.582;2024-02-26T15:53:21;6.93;;;4.50;;
67762;SDS011;54566;52.022;5.582;2024-02-26T15:59:27;5.88;;;4.25;;
67762;SDS011;54566;52.022;5.582;2024-02-26T16:05:18;6.95;;;4.35;;
67762;SDS011;54566;52.022;5.582;2024-02-26T16:07:54;7.07;;;4.70;;
67762;SDS011;54566;52.022;5.582;2024-02-26T16:20:44;7.13;;;4.22;;
67762;SDS011;54566;52.022;5.582;2024-02-26T16:23:52;8.00;;;4.95;;
67762;SDS011;54566;52.022;5.582;2024-02-26T16:44:50;8.55;;;5.05;;
